Time;durP1;ratioP1;P1;durP2;ratioP2;P2;SDS_P1;SDS_P2;PMS_P1;PMS_P2;Temp;Humidity;BMP_temperature;BMP_pressure;BME280_temperature;BME280_humidity;BME280_pressure;Samples;Min_cycle;Max_cycle;Signal;HPM_P1;HPM_P2
2024/01/31 00:01:34;;;;;;;4.55;2.80;;;-0.80;99.90;;;;;;5044495;28;20024;-79
2024/01/31 00:04:00;;;;;;;5.32;2.65;;;-0.80;99.90;;;;;;5025553;28;20034;-79
2024/01/31 00:06:26;;;;;;;5.60;2.63;;;-0.80;99.90;;;;;;4995270;28;20030;-79
2024/01/31 00:08:51;;;;;;;6.80;2.80;;;-0.80;99.90;;;;;;4992984;28;20096;-79
2024/01/31 00:11:17;;;;;;;5.30;2.67;;;-0.80;99.90;;;;;;5000133;28;20059;-79
2024/01/31 00:13:43;;;;;;;5.90;2.30;;;-0.80;99.90;;;;;;5013514;28;20038;-79
2024/01/31 00:16:08;;;;;;;5.63;2.72;;;-0.80;99.90;;;;;;5013959;28;20025;-79
2024/01/31 00:18:34;;;;;;;4.25;2.42;;;-0.80;99.90;;;;;;4995259;28;20065;-79
2024/01/31 00:21:00;;;;;;;6.82;2.83;;;-0.80;99.90;;;;;;4994045;28;20083;-79
2024/01/31 00:23:26;;;;;;;7.40;2.60;;;-0.80;99.90;;;;;;4994404;28;20034;-79
2024/01/31 00:25:51;;;;;;;5.88;2.45;;;-0.80;99.90;;;;;;4994389;28;20038;-79
2024/01/31 00:28:17;;;;;;;5.10;2.65;;;-0.90;99.90;;;;;;4994012;28;20133;-79
2024/01/31 00:30:44;;;;;;;5.68;2.33;;;-0.90;99.90;;;;;;4993740;28;20030;-79
2024/01/31 00:33:10;;;;;;;5.45;2.65;;;-0.90;99.90;;;;;;4976510;28;20037;-79
2024/01/31 00:35:35;;;;;;;4.80;2.50;;;-0.90;99.90;;;;;;4993023;28;20048;-78
2024/01/31 00:38:01;;;;;;;5.32;2.97;;;-1.00;99.90;;;;;;4994012;28;20064;-78
2024/01/31 00:40:27;;;;;;;3.70;2.60;;;-1.00;99.90;;;;;;4992595;28;20038;-79
2024/01/31 00:42:52;;;;;;;5.50;3.15;;;-1.00;99.90;;;;;;5013715;28;20045;-78
2024/01/31 00:45:18;;;;;;;4.80;2.60;;;-1.00;99.90;;;;;;5004793;28;20039;-79
2024/01/31 00:47:44;;;;;;;4.80;2.70;;;-1.00;99.90;;;;;;4992281;28;20036;-79
2024/01/31 00:50:12;;;;;;;6.28;2.50;;;-1.00;99.90;;;;;;4993616;28;20030;-78
2024/01/31 00:52:40;;;;;;;4.72;2.92;;;-1.00;99.90;;;;;;4993454;28;20065;-78
2024/01/31 00:55:06;;;;;;;4.18;2.28;;;-1.00;99.90;;;;;;4992419;28;20034;-79
2024/01/31 00:57:32;;;;;;;4.38;2.60;;;-0.90;99.90;;;;;;4992229;28;20039;-79
2024/01/31 00:59:58;;;;;;;7.53;2.97;;;-0.90;99.90;;;;;;4972883;28;20057;-78
2024/01/31 01:02:23;;;;;;;7.10;3.47;;;-0.90;99.90;;;;;;4972844;28;20445;-79
2024/01/31 01:04:49;;;;;;;6.05;3.50;;;-0.90;99.90;;;;;;4974296;28;20031;-79
2024/01/31 01:07:15;;;;;;;8.70;4.03;;;-0.90;99.90;;;;;;4972258;28;20030;-79
2024/01/31 01:09:40;;;;;;;7.07;3.67;;;-0.90;99.90;;;;;;4972219;28;20125;-79
2024/01/31 01:12:06;;;;;;;9.98;3.53;;;-0.90;99.90;;;;;;4988430;28;20034;-78
2024/01/31 01:14:32;;;;;;;6.28;3.75;;;-1.00;99.90;;;;;;4973921;28;20041;-79
2024/01/31 01:16:58;;;;;;;6.03;3.40;;;-1.10;99.90;;;;;;4973524;28;20038;-79
2024/01/31 01:19:23;;;;;;;5.78;3.53;;;-1.10;99.90;;;;;;4988546;28;20042;-79
2024/01/31 01:21:50;;;;;;;7.22;3.55;;;-1.10;99.90;;;;;;4995751;28;20030;-79
2024/01/31 01:24:16;;;;;;;7.82;3.30;;;-1.10;99.90;;;;;;5012808;28;20083;-78
2024/01/31 01:26:41;;;;;;;6.28;3.38;;;-1.10;99.90;;;;;;5008283;28;20412;-79
2024/01/31 01:29:07;;;;;;;8.40;3.70;;;-1.10;99.90;;;;;;4992926;28;20026;-79
2024/01/31 01:31:33;;;;;;;7.47;3.63;;;-1.10;99.90;;;;;;4991591;28;20026;-79
2024/01/31 01:33:59;;;;;;;9.02;3.90;;;-1.20;99.90;;;;;;4992134;28;20033;-79
2024/01/31 01:36:25;;;;;;;6.75;4.03;;;-1.20;99.90;;;;;;4974954;28;20120;-79
2024/01/31 01:38:51;;;;;;;5.90;3.50;;;-1.20;99.90;;;;;;4991194;28;20026;-79
2024/01/31 01:41:17;;;;;;;6.78;3.60;;;-1.20;99.90;;;;;;4992879;28;20439;-79
2024/01/31 01:43:43;;;;;;;5.80;2.92;;;-1.20;99.90;;;;;;4974965;28;20057;-79
2024/01/31 01:46:16;;;;;;;6.40;2.85;;;-1.20;99.90;;;;;;4975274;28;20113;-79
2024/01/31 01:48:46;;;;;;;6.03;3.35;;;-1.20;99.90;;;;;;4992674;28;20066;-79
2024/01/31 01:51:17;;;;;;;7.93;3.78;;;-1.20;99.90;;;;;;4993285;28;20499;-79
2024/01/31 01:53:45;;;;;;;5.13;2.97;;;-1.20;99.90;;;;;;4992861;28;20026;-79
2024/01/31 01:56:13;;;;;;;5.68;3.28;;;-1.30;99.90;;;;;;4990818;28;20206;-79
2024/01/31 01:58:40;;;;;;;6.13;3.50;;;-1.30;99.90;;;;;;4990951;28;20060;-79
2024/01/31 02:01:07;;;;;;;6.53;4.20;;;-1.20;99.90;;;;;;4993101;28;20034;-79
2024/01/31 02:03:35;;;;;;;7.40;3.30;;;-1.30;99.90;;;;;;4991884;28;20030;-79
2024/01/31 02:06:01;;;;;;;14.52;5.35;;;-1.30;99.90;;;;;;4992496;28;20057;-79
2024/01/31 02:08:27;;;;;;;13.75;6.28;;;-1.30;99.90;;;;;;4975142;28;20408;-79
2024/01/31 02:10:53;;;;;;;11.38;5.50;;;-1.30;99.90;;;;;;4991523;28;20480;-79
2024/01/31 02:13:19;;;;;;;22.27;9.75;;;-1.30;99.90;;;;;;4991307;28;20037;-79
2024/01/31 02:15:55;;;;;;;13.25;6.65;;;-1.40;99.90;;;;;;4992722;28;20023;-79
2024/01/31 02:18:22;;;;;;;11.00;5.65;;;-1.40;99.90;;;;;;4993081;28;20384;-79
2024/01/31 02:20:48;;;;;;;8.75;4.65;;;-1.40;99.90;;;;;;4992728;28;20499;-79
2024/01/31 02:23:14;;;;;;;10.80;4.10;;;-1.40;99.90;;;;;;4993197;28;20026;-79
2024/01/31 02:25:40;;;;;;;6.82;3.33;;;-1.40;99.90;;;;;;4995452;28;20031;-79
2024/01/31 02:28:05;;;;;;;9.15;4.55;;;-1.40;99.90;;;;;;4961519;28;20515;-79
2024/01/31 02:30:31;;;;;;;5.53;3.28;;;-1.40;99.90;;;;;;4994079;28;20037;-79
2024/01/31 02:32:57;;;;;;;7.78;3.90;;;-1.40;99.90;;;;;;4995023;28;20031;-79
2024/01/31 02:35:24;;;;;;;9.00;3.60;;;-1.40;99.90;;;;;;4996024;28;20026;-79
2024/01/31 02:37:49;;;;;;;6.63;4.43;;;-1.40;99.90;;;;;;5005050;28;20522;-79
2024/01/31 02:40:15;;;;;;;5.35;3.47;;;-1.50;99.90;;;;;;4991885;28;20042;-79
2024/01/31 02:42:44;;;;;;;7.28;3.63;;;-1.50;99.90;;;;;;4993574;28;20031;-79
2024/01/31 02:45:10;;;;;;;6.65;3.28;;;-1.50;99.90;;;;;;4993437;28;20027;-79
2024/01/31 02:47:38;;;;;;;5.03;2.65;;;-1.60;99.90;;;;;;4994781;28;20027;-79
2024/01/31 02:50:04;;;;;;;5.65;2.92;;;-1.60;99.90;;;;;;4993610;28;20034;-79
2024/01/31 02:52:30;;;;;;;6.40;2.50;;;-1.60;99.90;;;;;;4994474;28;20029;-79
2024/01/31 02:54:58;;;;;;;5.78;3.05;;;-1.60;99.90;;;;;;4993814;28;20198;-79
2024/01/31 02:57:24;;;;;;;7.72;2.90;;;-1.60;99.90;;;;;;4993365;28;20049;-79
2024/01/31 02:59:50;;;;;;;7.03;3.13;;;-1.60;99.90;;;;;;4994952;28;20033;-79
2024/01/31 03:02:17;;;;;;;5.38;2.85;;;-1.70;99.90;;;;;;4993597;28;20031;-79
2024/01/31 03:04:43;;;;;;;6.88;3.20;;;-1.80;99.90;;;;;;4993288;28;20033;-79
2024/01/31 03:07:10;;;;;;;6.45;2.95;;;-1.80;99.90;;;;;;4993040;28;20027;-79
2024/01/31 03:09:35;;;;;;;4.82;3.10;;;-1.80;99.90;;;;;;4993479;28;20052;-79
2024/01/31 03:12:04;;;;;;;6.68;3.50;;;-1.90;99.90;;;;;;4994471;28;20113;-79
2024/01/31 03:14:30;;;;;;;7.18;3.42;;;-1.90;99.90;;;;;;4993424;28;20030;-79
2024/01/31 03:16:56;;;;;;;8.27;4.80;;;-1.80;99.90;;;;;;4977108;28;20038;-79
2024/01/31 03:19:21;;;;;;;9.35;5.28;;;-1.80;99.90;;;;;;4993320;28;20030;-79
2024/01/31 03:21:47;;;;;;;7.95;5.18;;;-1.80;99.90;;;;;;4994601;28;20511;-79
2024/01/31 03:24:13;;;;;;;8.00;5.15;;;-1.70;99.90;;;;;;4976925;28;20434;-79
2024/01/31 03:26:38;;;;;;;7.53;4.68;;;-1.70;99.90;;;;;;4976791;28;20484;-79
2024/01/31 03:29:04;;;;;;;7.80;4.50;;;-1.70;99.90;;;;;;4977154;28;20037;-79
2024/01/31 03:31:30;;;;;;;6.60;4.05;;;-1.70;99.90;;;;;;4976487;28;20022;-79
2024/01/31 03:33:55;;;;;;;5.63;3.75;;;-1.60;99.90;;;;;;4993574;28;20026;-79
2024/01/31 03:36:21;;;;;;;7.00;4.28;;;-1.60;99.90;;;;;;4976728;28;20064;-79
2024/01/31 03:38:47;;;;;;;6.90;3.60;;;-1.60;99.90;;;;;;4993167;28;20038;-79
2024/01/31 03:41:12;;;;;;;7.60;4.03;;;-1.60;99.90;;;;;;4992857;28;20064;-79
2024/01/31 03:43:38;;;;;;;5.30;3.42;;;-1.60;99.90;;;;;;4992759;28;20061;-79
2024/01/31 03:46:07;;;;;;;5.93;3.28;;;-1.50;99.90;;;;;;4992728;28;20038;-79
2024/01/31 03:48:33;;;;;;;4.22;2.65;;;-1.50;99.90;;;;;;4976746;28;20030;-79
2024/01/31 03:50:59;;;;;;;5.43;2.67;;;-1.50;99.90;;;;;;4976616;28;20030;-79
2024/01/31 03:53:25;;;;;;;6.65;3.00;;;-1.40;99.90;;;;;;4992750;28;20050;-79
2024/01/31 03:55:51;;;;;;;7.03;2.80;;;-1.40;99.90;;;;;;4993562;28;20026;-79
2024/01/31 03:58:17;;;;;;;5.47;3.42;;;-1.40;99.90;;;;;;4992622;28;20069;-79
2024/01/31 04:00:46;;;;;;;4.93;2.92;;;-1.40;99.90;;;;;;4977386;28;20042;-79
2024/01/31 04:03:12;;;;;;;8.00;3.10;;;-1.40;99.90;;;;;;4992749;28;20400;-79
2024/01/31 04:05:38;;;;;;;4.50;2.78;;;-1.40;99.90;;;;;;4993826;28;20033;-79
2024/01/31 04:08:04;;;;;;;7.78;3.78;;;-1.40;99.90;;;;;;4993500;28;20481;-79
2024/01/31 04:10:29;;;;;;;5.47;3.15;;;-1.30;99.90;;;;;;4992278;28;20023;-79
2024/01/31 04:12:55;;;;;;;5.15;2.95;;;-1.30;99.90;;;;;;4993836;28;20034;-79
2024/01/31 04:15:21;;;;;;;5.13;3.30;;;-1.30;99.90;;;;;;4992347;28;20083;-79
2024/01/31 04:17:46;;;;;;;5.93;3.00;;;-1.30;99.90;;;;;;4975804;28;20042;-79
2024/01/31 04:20:12;;;;;;;5.00;2.70;;;-1.30;99.90;;;;;;4975665;28;20038;-79
2024/01/31 04:22:38;;;;;;;5.05;3.03;;;-1.20;99.90;;;;;;4992229;28;20484;-79
2024/01/31 04:25:07;;;;;;;7.03;3.25;;;-1.20;99.90;;;;;;4991703;28;20038;-79
2024/01/31 04:27:33;;;;;;;7.47;3.63;;;-1.20;99.90;;;;;;5004207;28;20117;-79
2024/01/31 04:29:59;;;;;;;6.85;3.03;;;-1.20;99.90;;;;;;4975946;28;20080;-80
2024/01/31 04:32:25;;;;;;;5.13;3.03;;;-1.20;99.90;;;;;;4992337;28;20023;-80
2024/01/31 04:34:51;;;;;;;4.88;3.10;;;-1.10;99.90;;;;;;4992391;28;20480;-80
2024/01/31 04:37:17;;;;;;;5.05;2.83;;;-1.10;99.90;;;;;;4992140;28;20396;-80
2024/01/31 04:39:43;;;;;;;5.90;3.05;;;-1.10;99.90;;;;;;4993559;28;20030;-80
2024/01/31 04:42:09;;;;;;;6.10;3.17;;;-1.10;99.90;;;;;;4992261;28;20404;-80
2024/01/31 04:44:35;;;;;;;5.88;3.40;;;-1.10;99.90;;;;;;4991350;28;20034;-80
2024/01/31 04:47:01;;;;;;;7.13;4.35;;;-1.10;99.90;;;;;;4975418;28;20079;-80
2024/01/31 04:49:27;;;;;;;7.28;3.60;;;-1.10;99.90;;;;;;4992555;28;20038;-80
2024/01/31 04:51:53;;;;;;;6.75;3.20;;;-1.10;99.90;;;;;;4992403;28;20080;-80
2024/01/31 04:54:19;;;;;;;6.25;3.60;;;-1.10;99.90;;;;;;4976277;28;20030;-80
2024/01/31 04:56:45;;;;;;;11.52;3.90;;;-1.10;99.90;;;;;;4976160;28;20079;-80
2024/01/31 04:59:10;;;;;;;5.88;3.00;;;-1.10;99.90;;;;;;4992209;28;20066;-80
2024/01/31 05:01:37;;;;;;;5.20;3.10;;;-1.10;99.90;;;;;;4993528;28;20038;-79
2024/01/31 05:04:03;;;;;;;5.82;3.13;;;-1.10;99.90;;;;;;4992245;28;20552;-79
2024/01/31 05:06:28;;;;;;;7.53;4.07;;;-1.20;99.90;;;;;;4993003;28;20508;-79
2024/01/31 05:08:54;;;;;;;8.82;4.20;;;-1.20;99.90;;;;;;4993373;28;20020;-79
2024/01/31 05:11:20;;;;;;;5.22;3.05;;;-1.20;99.90;;;;;;4992155;28;20026;-79
2024/01/31 05:13:46;;;;;;;5.68;3.30;;;-1.20;99.90;;;;;;4993337;28;20114;-79
2024/01/31 05:16:11;;;;;;;5.72;3.15;;;-1.20;99.90;;;;;;4992044;28;20034;-79
2024/01/31 05:18:37;;;;;;;5.80;3.03;;;-1.20;99.90;;;;;;4991953;28;20030;-79
2024/01/31 05:21:04;;;;;;;6.18;3.30;;;-1.20;99.90;;;;;;4992146;28;20031;-79
2024/01/31 05:23:29;;;;;;;6.15;3.38;;;-1.20;99.90;;;;;;4993331;28;20026;-79
2024/01/31 05:25:55;;;;;;;6.10;3.03;;;-1.20;99.90;;;;;;4991669;28;20033;-79
2024/01/31 05:28:21;;;;;;;5.40;2.95;;;-1.20;99.90;;;;;;4992836;28;19921;-79
2024/01/31 05:30:47;;;;;;;6.57;3.15;;;-1.20;99.90;;;;;;4991759;28;20058;-79
2024/01/31 05:33:14;;;;;;;6.38;3.63;;;-1.20;99.90;;;;;;4992113;28;20027;-79
2024/01/31 05:35:41;;;;;;;6.60;3.80;;;-1.20;99.90;;;;;;4975862;28;20054;-79
2024/01/31 05:38:06;;;;;;;5.03;3.05;;;-1.20;99.90;;;;;;4974776;28;20061;-79
2024/01/31 05:40:32;;;;;;;6.15;3.10;;;-1.20;99.90;;;;;;4991272;28;20485;-79
2024/01/31 05:42:58;;;;;;;5.53;3.35;;;-1.20;99.90;;;;;;4975728;28;20035;-79
2024/01/31 05:45:24;;;;;;;5.25;2.63;;;-1.20;99.90;;;;;;4991139;28;20448;-79
2024/01/31 05:47:50;;;;;;;7.32;3.20;;;-1.20;99.90;;;;;;4990790;28;20030;-79
2024/01/31 05:50:16;;;;;;;5.43;3.30;;;-1.20;99.90;;;;;;4990923;28;20121;-79
2024/01/31 05:52:41;;;;;;;8.23;4.40;;;-1.20;99.90;;;;;;4991079;28;20105;-79
2024/01/31 05:55:07;;;;;;;13.65;7.45;;;-1.20;99.90;;;;;;4991825;28;20042;-79
2024/01/31 05:57:33;;;;;;;12.63;6.28;;;-1.20;99.90;;;;;;4989675;28;20058;-79
2024/01/31 05:59:59;;;;;;;11.23;6.47;;;-1.30;99.90;;;;;;4992815;28;20109;-79
2024/01/31 06:02:25;;;;;;;10.57;6.32;;;-1.30;99.90;;;;;;4990410;28;20395;-79
2024/01/31 06:04:51;;;;;;;19.20;8.52;;;-1.30;99.90;;;;;;4991920;28;20109;-79
2024/01/31 06:07:17;;;;;;;17.42;8.45;;;-1.30;99.90;;;;;;4974184;28;20044;-79
2024/01/31 06:09:43;;;;;;;25.70;12.52;;;-1.40;99.90;;;;;;4990284;28;20030;-79
2024/01/31 06:12:09;;;;;;;22.90;10.43;;;-1.40;99.90;;;;;;4990956;28;20031;-79
2024/01/31 06:14:37;;;;;;;16.65;7.53;;;-1.50;99.90;;;;;;4991667;28;20034;-79
2024/01/31 06:17:03;;;;;;;23.27;9.57;;;-1.50;99.90;;;;;;4974469;28;20038;-79
2024/01/31 06:19:29;;;;;;;21.05;8.40;;;-1.50;99.90;;;;;;4991138;28;20031;-79
2024/01/31 06:21:55;;;;;;;34.78;13.73;;;-1.60;99.90;;;;;;4991464;28;20054;-79
2024/01/31 06:24:21;;;;;;;66.80;28.95;;;-1.60;99.90;;;;;;4991301;28;20100;-79
2024/01/31 06:26:46;;;;;;;64.63;27.50;;;-1.60;99.90;;;;;;4991430;28;20468;-79
2024/01/31 06:29:17;;;;;;;27.30;12.65;;;-1.60;99.90;;;;;;4991427;28;20033;-79
2024/01/31 06:31:46;;;;;;;;;;;-1.70;99.90;;;;;;4974925;28;20026;-79
2024/01/31 06:34:16;;;;;;;32.38;13.20;;;-1.70;99.90;;;;;;4991331;28;19913;-79
2024/01/31 06:36:42;;;;;;;27.60;12.32;;;-1.70;99.90;;;;;;4990851;28;20033;-79
2024/01/31 06:39:09;;;;;;;32.22;13.38;;;-1.70;99.90;;;;;;4991110;28;20041;-79
2024/01/31 06:41:36;;;;;;;25.65;11.02;;;-1.70;99.90;;;;;;4989906;28;20117;-79
2024/01/31 06:44:02;;;;;;;21.33;9.77;;;-1.70;99.90;;;;;;4989914;28;20073;-79
2024/01/31 06:46:28;;;;;;;26.85;10.00;;;-1.70;99.90;;;;;;4989613;28;20034;-79
2024/01/31 06:48:54;;;;;;;23.33;9.43;;;-1.70;99.90;;;;;;4989872;28;20037;-79
2024/01/31 06:51:20;;;;;;;22.33;9.18;;;-1.70;99.90;;;;;;4990851;28;20027;-79
2024/01/31 06:53:46;;;;;;;23.48;10.95;;;-1.70;99.90;;;;;;4989729;28;20080;-79
2024/01/31 06:56:17;;;;;;;22.58;10.23;;;-1.70;99.90;;;;;;4973488;28;20385;-79
2024/01/31 06:58:46;;;;;;;20.77;9.43;;;-1.60;99.90;;;;;;4989730;28;20079;-79
2024/01/31 07:01:16;;;;;;;19.15;9.02;;;-1.70;99.90;;;;;;4990738;28;20019;-79
2024/01/31 07:03:42;;;;;;;15.43;7.32;;;-1.70;99.90;;;;;;4989839;28;20026;-79
2024/01/31 07:06:09;;;;;;;13.27;6.70;;;-1.70;99.90;;;;;;4989484;28;20022;-79
2024/01/31 07:08:35;;;;;;;10.40;5.88;;;-1.70;99.90;;;;;;4987714;28;20101;-79
2024/01/31 07:11:01;;;;;;;14.38;7.28;;;-1.70;99.90;;;;;;4994148;28;20107;-79
2024/01/31 07:13:26;;;;;;;15.93;8.32;;;-1.60;99.90;;;;;;4992873;28;20046;-79
2024/01/31 07:15:52;;;;;;;19.83;9.77;;;-1.60;99.90;;;;;;4994247;28;20035;-79
2024/01/31 07:18:17;;;;;;;20.42;9.88;;;-1.60;99.90;;;;;;4992970;28;20099;-79
2024/01/31 07:20:43;;;;;;;19.27;9.38;;;-1.50;99.90;;;;;;4993136;28;20035;-79
2024/01/31 07:23:09;;;;;;;17.40;8.48;;;-1.50;99.90;;;;;;4994021;28;20035;-79
2024/01/31 07:25:39;;;;;;;17.10;9.02;;;-1.50;99.90;;;;;;4992846;28;20030;-79
2024/01/31 07:28:05;;;;;;;17.98;9.63;;;-1.40;99.90;;;;;;4993826;28;20023;-79
2024/01/31 07:30:31;;;;;;;21.40;12.38;;;-1.30;99.90;;;;;;4976613;28;20037;-79
2024/01/31 07:32:56;;;;;;;13.65;7.30;;;-1.20;99.90;;;;;;4993847;28;20023;-79
2024/01/31 07:35:24;;;;;;;8.80;5.97;;;-1.20;99.90;;;;;;4976562;28;20023;-79
2024/01/31 07:37:50;;;;;;;9.00;5.55;;;-1.10;99.90;;;;;;4992690;28;20109;-79
2024/01/31 07:40:16;;;;;;;9.48;5.38;;;-1.00;99.90;;;;;;4992584;28;20038;-79
2024/01/31 07:42:41;;;;;;;8.85;5.03;;;-1.00;99.90;;;;;;4992522;28;20485;-79
2024/01/31 07:45:08;;;;;;;7.80;4.65;;;-0.90;99.90;;;;;;4992821;28;20109;-79
2024/01/31 07:47:36;;;;;;;9.02;4.38;;;-0.80;99.90;;;;;;4976188;28;20038;-79
2024/01/31 07:50:04;;;;;;;7.45;4.18;;;-0.80;99.90;;;;;;4992444;28;20026;-79
2024/01/31 07:52:29;;;;;;;9.23;4.43;;;-0.70;99.90;;;;;;4993524;28;20554;-79
2024/01/31 07:54:55;;;;;;;8.48;4.10;;;-0.70;99.90;;;;;;4992345;28;20128;-79
2024/01/31 07:57:21;;;;;;;6.78;4.13;;;-0.60;99.90;;;;;;4993761;28;20030;-79
2024/01/31 07:59:47;;;;;;;10.05;4.50;;;-0.60;99.90;;;;;;4993401;28;20034;-79
2024/01/31 08:02:13;;;;;;;6.57;4.07;;;-0.50;99.90;;;;;;4993558;28;20026;-79
2024/01/31 08:04:39;;;;;;;7.70;4.68;;;-0.50;99.90;;;;;;4993749;28;20396;-79
2024/01/31 08:07:04;;;;;;;7.40;4.28;;;-0.40;99.90;;;;;;4993378;28;20034;-79
2024/01/31 08:09:30;;;;;;;7.05;4.10;;;-0.40;99.90;;;;;;4993643;28;20037;-79
2024/01/31 08:11:56;;;;;;;9.93;4.97;;;-0.30;99.90;;;;;;4976038;28;20030;-79
2024/01/31 08:14:22;;;;;;;13.30;5.35;;;-0.20;99.90;;;;;;4993635;28;20400;-79
2024/01/31 08:16:50;;;;;;;8.65;4.88;;;-0.20;99.90;;;;;;4993235;28;20023;-79
2024/01/31 08:19:16;;;;;;;8.05;4.25;;;-0.20;99.90;;;;;;4991590;28;20113;-79
2024/01/31 08:21:41;;;;;;;6.85;4.30;;;-0.10;99.90;;;;;;4990889;28;20064;-79
2024/01/31 08:24:07;;;;;;;7.25;4.30;;;0.00;99.90;;;;;;4992885;28;20072;-79
2024/01/31 08:26:33;;;;;;;8.60;3.90;;;0.00;99.90;;;;;;4993064;28;20030;-79
2024/01/31 08:28:59;;;;;;;8.68;4.63;;;0.10;99.90;;;;;;4993327;28;20026;-79
2024/01/31 08:31:24;;;;;;;7.03;4.53;;;0.10;99.90;;;;;;4991941;28;20476;-79
2024/01/31 08:33:50;;;;;;;6.78;4.00;;;0.20;99.90;;;;;;4992207;28;20095;-79
2024/01/31 08:36:16;;;;;;;8.77;3.95;;;0.20;99.90;;;;;;4993134;28;20029;-79
2024/01/31 08:38:43;;;;;;;10.60;4.80;;;0.20;99.90;;;;;;4993051;28;20037;-79
2024/01/31 08:41:10;;;;;;;9.63;5.13;;;0.30;99.90;;;;;;4993157;28;20460;-79
2024/01/31 08:43:36;;;;;;;8.73;4.93;;;0.30;99.90;;;;;;4991876;28;20090;-79
2024/01/31 08:46:02;;;;;;;8.02;5.18;;;0.30;99.90;;;;;;4991866;28;20069;-79
2024/01/31 08:48:28;;;;;;;9.10;4.53;;;0.30;99.90;;;;;;4993420;28;20034;-79
2024/01/31 08:50:53;;;;;;;11.02;5.25;;;0.40;99.90;;;;;;4993099;28;20023;-79
2024/01/31 08:53:19;;;;;;;8.70;4.35;;;0.40;99.90;;;;;;4991213;28;20026;-79
2024/01/31 08:55:45;;;;;;;7.47;4.30;;;0.40;99.90;;;;;;4991656;28;20030;-79
2024/01/31 08:58:10;;;;;;;8.90;5.05;;;0.50;99.90;;;;;;4991567;28;20031;-79
2024/01/31 09:00:36;;;;;;;10.18;4.70;;;0.50;99.90;;;;;;4992736;28;20034;-78
2024/01/31 09:03:03;;;;;;;10.93;5.85;;;0.50;99.90;;;;;;4991685;28;20030;-79
2024/01/31 09:05:29;;;;;;;10.73;5.88;;;0.50;99.90;;;;;;4991403;28;20038;-79
2024/01/31 09:07:55;;;;;;;12.68;6.45;;;0.60;99.90;;;;;;4992252;28;20495;-79
2024/01/31 09:10:21;;;;;;;10.70;6.15;;;0.60;99.90;;;;;;4991472;28;20026;-79
2024/01/31 09:12:47;;;;;;;10.88;5.65;;;0.60;99.90;;;;;;4991274;28;20039;-79
2024/01/31 09:15:13;;;;;;;17.48;7.55;;;0.70;99.90;;;;;;4992526;28;20383;-79
2024/01/31 09:17:39;;;;;;;20.77;12.20;;;0.60;99.90;;;;;;4991198;28;20023;-79
2024/01/31 09:20:06;;;;;;;23.52;11.60;;;0.70;99.90;;;;;;4991026;28;20030;-79
2024/01/31 09:22:31;;;;;;;15.77;10.60;;;0.70;99.90;;;;;;4971555;28;20038;-79
2024/01/31 09:24:57;;;;;;;17.10;9.35;;;0.70;99.90;;;;;;4987865;28;20042;-79
2024/01/31 09:27:23;;;;;;;13.75;8.38;;;0.70;99.90;;;;;;4987939;28;20114;-79
2024/01/31 09:29:48;;;;;;;13.68;8.20;;;0.80;99.90;;;;;;4971673;28;20485;-79
2024/01/31 09:32:15;;;;;;;17.80;7.93;;;0.80;99.90;;;;;;4973233;28;20035;-78
2024/01/31 09:34:43;;;;;;;16.23;8.43;;;0.90;99.90;;;;;;4974194;28;20055;-79
2024/01/31 09:37:09;;;;;;;16.40;7.28;;;1.00;99.90;;;;;;4990992;28;20407;-78
2024/01/31 09:39:35;;;;;;;12.52;6.93;;;1.00;99.90;;;;;;4974809;28;20121;-79
2024/01/31 09:42:00;;;;;;;18.50;7.90;;;1.10;99.90;;;;;;4992145;28;20041;-79
2024/01/31 09:44:28;;;;;;;15.25;7.40;;;1.10;99.90;;;;;;4992588;28;20407;-78
2024/01/31 09:46:56;;;;;;;14.98;8.60;;;1.10;99.90;;;;;;4990816;28;20495;-78
2024/01/31 09:49:21;;;;;;;14.48;7.45;;;1.20;99.90;;;;;;4990900;28;20079;-78
2024/01/31 09:51:48;;;;;;;13.13;7.18;;;1.30;99.90;;;;;;4990878;28;20543;-79
2024/01/31 09:54:14;;;;;;;15.63;7.95;;;1.20;99.90;;;;;;4990683;28;20140;-78
2024/01/31 09:56:40;;;;;;;15.85;7.50;;;1.20;99.90;;;;;;4975004;28;20037;-79
2024/01/31 09:59:06;;;;;;;13.20;8.13;;;1.30;99.90;;;;;;4992676;28;20023;-78
2024/01/31 10:01:31;;;;;;;16.98;7.95;;;1.30;99.90;;;;;;4990736;28;20042;-79
2024/01/31 10:03:57;;;;;;;20.13;9.43;;;1.30;99.90;;;;;;4991683;28;20113;-79
2024/01/31 10:06:27;;;;;;;18.73;8.55;;;1.30;99.90;;;;;;4974307;28;20121;-79
2024/01/31 10:08:53;;;;;;;14.27;8.20;;;1.40;99.90;;;;;;4991527;28;20022;-79
2024/01/31 10:11:18;;;;;;;12.93;7.25;;;1.40;99.90;;;;;;4990918;28;20030;-79
2024/01/31 10:13:44;;;;;;;12.27;6.68;;;1.40;99.90;;;;;;4974300;28;20035;-79
2024/01/31 10:16:10;;;;;;;11.15;6.38;;;1.40;99.90;;;;;;4990657;28;20027;-79
2024/01/31 10:18:35;;;;;;;12.68;6.53;;;1.50;99.90;;;;;;4990599;28;20035;-79
2024/01/31 10:21:02;;;;;;;13.50;6.47;;;1.50;99.90;;;;;;4991981;28;20443;-79
2024/01/31 10:23:27;;;;;;;10.73;6.07;;;1.50;99.90;;;;;;4991528;28;20530;-79
2024/01/31 10:25:53;;;;;;;11.70;6.65;;;1.40;99.90;;;;;;4989976;28;20066;-79
2024/01/31 10:28:20;;;;;;;14.77;7.13;;;1.50;99.90;;;;;;4991489;28;20485;-79
2024/01/31 10:30:48;;;;;;;12.38;6.60;;;1.50;99.90;;;;;;4991805;28;20029;-79
2024/01/31 10:33:15;;;;;;;16.00;6.80;;;1.50;99.90;;;;;;4991555;28;20022;-79
2024/01/31 10:35:45;;;;;;;15.25;6.78;;;1.60;99.90;;;;;;4990652;28;20031;-79
2024/01/31 10:38:13;;;;;;;14.50;6.65;;;1.70;99.90;;;;;;4990197;28;20026;-79
2024/01/31 10:40:41;;;;;;;11.18;6.68;;;1.80;99.90;;;;;;4990047;28;20031;-79
2024/01/31 10:43:10;;;;;;;17.20;7.68;;;2.00;99.90;;;;;;4990702;28;20023;-79
2024/01/31 10:45:36;;;;;;;16.45;8.77;;;2.10;99.90;;;;;;4993567;28;20037;-79
2024/01/31 10:48:05;;;;;;;16.80;8.38;;;2.20;99.90;;;;;;4994845;28;20472;-79
2024/01/31 10:50:31;;;;;;;16.33;8.27;;;2.30;99.90;;;;;;4994948;28;20027;-79
2024/01/31 10:52:59;;;;;;;17.10;8.75;;;2.40;99.90;;;;;;4993435;28;20027;-79
2024/01/31 10:55:25;;;;;;;14.15;8.93;;;2.50;99.90;;;;;;4994544;28;20026;-79
2024/01/31 10:57:51;;;;;;;15.90;7.82;;;2.70;99.90;;;;;;4993348;28;20113;-79
2024/01/31 11:00:28;;;;;;;14.27;7.45;;;2.90;99.90;;;;;;4993020;28;20064;-79
2024/01/31 11:02:56;;;;;;;13.48;6.80;;;3.10;99.90;;;;;;4993206;28;20038;-79
2024/01/31 11:05:24;;;;;;;17.75;8.13;;;3.20;99.90;;;;;;4993533;28;20027;-79
2024/01/31 11:07:50;;;;;;;14.65;7.60;;;3.30;99.90;;;;;;4993053;28;20026;-79
2024/01/31 11:10:22;;;;;;;14.60;7.03;;;3.40;99.90;;;;;;4993432;28;20029;-79
2024/01/31 11:13:00;;;;;;;13.90;7.72;;;3.50;99.90;;;;;;4994266;28;20042;-79
2024/01/31 11:15:31;;;;;;;21.52;8.45;;;3.50;99.90;;;;;;4993346;28;20026;-79
2024/01/31 11:18:15;;;;;;;13.43;7.27;;;3.60;99.90;;;;;;4992942;28;20060;-79
2024/01/31 11:20:46;;;;;;;13.02;6.95;;;3.70;99.90;;;;;;4993038;28;20323;-79
2024/01/31 11:23:16;;;;;;;14.32;6.20;;;3.90;99.90;;;;;;4993294;28;20106;-79
2024/01/31 11:25:46;;;;;;;12.85;5.88;;;4.00;99.90;;;;;;4992662;28;20022;-79
2024/01/31 11:28:12;;;;;;;12.30;6.10;;;4.00;99.90;;;;;;4976880;28;20031;-79
2024/01/31 11:30:39;;;;;;;13.23;5.72;;;4.20;99.90;;;;;;4993805;28;20030;-79
2024/01/31 11:33:05;;;;;;;13.15;6.13;;;4.30;99.90;;;;;;4992604;28;20034;-79
2024/01/31 11:35:31;;;;;;;13.15;6.00;;;4.40;99.90;;;;;;4992887;28;20023;-79
2024/01/31 11:37:58;;;;;;;10.13;5.72;;;4.60;99.90;;;;;;4992708;28;20439;-79
2024/01/31 11:40:24;;;;;;;11.05;5.35;;;4.70;99.90;;;;;;4992814;28;20038;-79
2024/01/31 11:42:52;;;;;;;9.63;4.72;;;4.80;99.90;;;;;;4994099;28;20029;-79
2024/01/31 11:45:18;;;;;;;9.88;5.00;;;4.90;99.90;;;;;;4992728;28;20034;-79
2024/01/31 11:47:44;;;;;;;8.93;4.60;;;5.00;99.90;;;;;;4992474;28;20037;-79
2024/01/31 11:50:10;;;;;;;9.40;4.32;;;5.10;99.90;;;;;;4976620;28;20035;-79
2024/01/31 11:52:37;;;;;;;12.70;4.70;;;5.20;99.90;;;;;;4976060;28;20128;-79
2024/01/31 11:55:03;;;;;;;6.13;3.55;;;5.30;99.90;;;;;;4993480;28;20026;-79
2024/01/31 11:57:30;;;;;;;9.88;3.80;;;5.30;99.90;;;;;;4976682;28;20031;-79
2024/01/31 11:59:55;;;;;;;6.07;3.40;;;5.40;99.90;;;;;;4992316;28;20064;-79
2024/01/31 12:02:21;;;;;;;4.60;3.08;;;5.50;99.90;;;;;;4993210;28;20404;-79
2024/01/31 12:04:57;;;;;;;5.30;2.50;;;5.60;99.90;;;;;;4993453;28;20031;-79
2024/01/31 12:07:23;;;;;;;6.20;2.90;;;5.70;99.90;;;;;;4993056;28;20035;-79
2024/01/31 12:09:49;;;;;;;9.98;2.60;;;5.70;99.90;;;;;;4975425;28;20031;-79
2024/01/31 12:12:15;;;;;;;5.55;2.30;;;5.70;99.90;;;;;;4992884;28;20034;-79
2024/01/31 12:14:41;;;;;;;5.35;2.80;;;5.70;99.90;;;;;;4992058;28;20037;-80
2024/01/31 12:17:27;;;;;;;14.13;3.40;;;5.80;99.90;;;;;;4972625;28;20027;-81
2024/01/31 12:20:08;;;;;;;6.57;2.22;;;5.80;99.90;;;;;;4974368;28;20041;-80
2024/01/31 12:22:36;;;;;;;5.35;2.53;;;5.80;99.90;;;;;;4988953;28;20031;-80
2024/01/31 12:25:02;;;;;;;3.65;2.20;;;5.80;99.90;;;;;;4972624;28;20030;-80
2024/01/31 12:27:28;;;;;;;4.00;1.80;;;5.80;99.90;;;;;;4988587;28;20404;-80
2024/01/31 12:29:54;;;;;;;5.97;2.03;;;5.80;99.90;;;;;;4973995;28;20034;-80
2024/01/31 12:32:19;;;;;;;6.13;2.05;;;5.80;99.90;;;;;;4986030;28;20034;-80
2024/01/31 12:34:45;;;;;;;5.90;1.90;;;5.80;99.90;;;;;;4992130;28;20492;-80
2024/01/31 12:37:11;;;;;;;3.75;1.90;;;5.80;99.90;;;;;;4993165;28;20034;-80
2024/01/31 12:39:36;;;;;;;4.95;1.90;;;5.80;99.90;;;;;;4993156;28;20031;-80
2024/01/31 12:42:03;;;;;;;5.53;2.53;;;5.80;99.90;;;;;;4992118;28;20030;-80